Time;durP1;ratioP1;P1;durP2;ratioP2;P2;SDS_P1;SDS_P2;PMS_P1;PMS_P2;Temp;Humidity;BMP_temperature;BMP_pressure;BME280_temperature;BME280_humidity;BME280_pressure;Samples;Min_cycle;Max_cycle;Signal;HPM_P1;HPM_P2
2023/04/06 00:01:46;;;;;;;5.57;4.93;;;;;;;2.83;79.51;98813.63;4169424;28;20208;-48
2023/04/06 00:03:48;;;;;;;5.28;4.88;;;;;;;2.78;78.36;98812.53;4165603;28;20259;-47
2023/04/06 00:05:50;;;;;;;4.70;4.28;;;;;;;2.82;78.24;98814.63;4168194;28;20602;-47
2023/04/06 00:07:54;;;;;;;4.07;3.72;;;;;;;2.77;78.56;98806.28;4167149;28;20212;-47
2023/04/06 00:09:55;;;;;;;5.60;5.10;;;;;;;2.72;78.18;98803.34;4169583;28;20266;-47
2023/04/06 00:11:57;;;;;;;7.45;5.35;;;;;;;2.64;78.53;98806.16;4187078;28;20273;-47
2023/04/06 00:14:00;;;;;;;5.22;4.75;;;;;;;2.72;78.45;98797.94;4160624;28;20212;-47
2023/04/06 00:16:02;;;;;;;8.18;5.28;;;;;;;2.53;78.71;98803.97;4173647;28;20235;-50
2023/04/06 00:18:04;;;;;;;5.85;4.55;;;;;;;2.57;78.64;98793.63;4178976;28;20211;-47
2023/04/06 00:20:06;;;;;;;4.10;3.80;;;;;;;2.66;78.72;98798.69;4170305;28;20208;-47
2023/04/06 00:22:08;;;;;;;5.97;5.47;;;;;;;2.60;78.34;98791.38;4178932;28;20262;-47
2023/04/06 00:24:10;;;;;;;4.18;3.83;;;;;;;2.57;78.59;98791.78;4201564;28;20226;-48
2023/04/06 00:26:12;;;;;;;4.72;3.60;;;;;;;2.40;78.78;98793.03;4170478;28;20228;-48
2023/04/06 00:28:13;;;;;;;4.05;3.75;;;;;;;2.35;79.70;98790.06;4173082;28;20236;-47
2023/04/06 00:30:15;;;;;;;4.03;3.72;;;;;;;2.35;79.23;98784.66;4171471;28;20223;-48
2023/04/06 00:32:17;;;;;;;3.78;3.47;;;;;;;2.29;79.17;98784.59;4167988;28;20212;-47
2023/04/06 00:34:20;;;;;;;3.85;3.55;;;;;;;2.27;79.30;98787.50;4185110;28;20261;-48
2023/04/06 00:36:22;;;;;;;4.13;2.85;;;;;;;2.33;80.23;98786.72;4170499;28;20232;-47
2023/04/06 00:38:24;;;;;;;4.00;3.65;;;;;;;2.30;80.26;98792.53;4153771;28;20205;-47
2023/04/06 00:40:28;;;;;;;4.07;3.78;;;;;;;2.32;80.54;98789.63;4159940;28;20212;-48
2023/04/06 00:42:30;;;;;;;6.20;4.72;;;;;;;2.27;80.42;98784.78;4176020;28;20653;-47
2023/04/06 00:44:32;;;;;;;15.38;8.63;;;;;;;2.25;80.23;98789.56;4183735;28;20731;-48
2023/04/06 00:46:34;;;;;;;18.73;9.60;;;;;;;2.17;80.61;98784.28;4175621;28;20810;-47
2023/04/06 00:48:36;;;;;;;11.45;8.90;;;;;;;2.13;80.50;98785.69;4171025;28;20244;-47
2023/04/06 00:50:38;;;;;;;11.98;8.32;;;;;;;2.24;80.89;98781.63;4156684;28;20206;-48
2023/04/06 00:52:40;;;;;;;14.93;9.63;;;;;;;2.17;80.95;98781.59;4171512;28;20223;-46
2023/04/06 00:54:41;;;;;;;16.90;12.82;;;;;;;2.12;79.91;98778.59;4170017;28;20711;-48
2023/04/06 00:56:43;;;;;;;22.30;12.75;;;;;;;2.13;80.22;98774.88;4169705;28;20228;-47
2023/04/06 00:58:45;;;;;;;20.30;13.25;;;;;;;2.03;80.32;98785.16;4201613;28;20214;-47
2023/04/06 01:00:47;;;;;;;24.35;16.05;;;;;;;2.04;80.44;98785.97;4151216;28;20228;-46
2023/04/06 01:02:49;;;;;;;25.02;16.10;;;;;;;2.16;80.94;98769.13;4171719;28;20266;-47
2023/04/06 01:04:52;;;;;;;31.90;15.93;;;;;;;2.15;81.10;98772.81;4168967;28;20208;-47
2023/04/06 01:06:54;;;;;;;19.70;16.65;;;;;;;2.03;80.98;98771.66;4184271;28;20242;-49
2023/04/06 01:08:56;;;;;;;30.85;14.45;;;;;;;2.03;81.14;98784.31;4169444;28;20677;-49
2023/04/06 01:11:00;;;;;;;23.90;15.40;;;;;;;2.01;80.97;98770.19;4200353;28;20462;-47
2023/04/06 01:13:02;;;;;;;17.45;11.82;;;;;;;1.96;81.70;98773.47;4172056;28;20204;-46
2023/04/06 01:15:08;;;;;;;12.23;10.82;;;;;;;1.84;81.17;98780.34;4167959;28;20212;-47
2023/04/06 01:17:09;;;;;;;10.65;9.20;;;;;;;1.89;81.40;98771.69;4171512;28;20270;-47
2023/04/06 01:19:12;;;;;;;10.27;8.40;;;;;;;1.82;81.37;98771.59;4169101;28;20223;-47
2023/04/06 01:21:17;;;;;;;7.88;7.00;;;;;;;1.82;81.68;98770.78;4169269;28;20295;-46
2023/04/06 01:23:19;;;;;;;6.65;6.00;;;;;;;1.82;81.81;98766.19;4169413;28;20286;-47
2023/04/06 01:25:20;;;;;;;9.55;6.72;;;;;;;1.88;82.03;98770.84;4156970;28;21066;-46
2023/04/06 01:27:22;;;;;;;8.73;6.18;;;;;;;1.85;81.91;98770.38;4202835;28;20248;-47
2023/04/06 01:29:24;;;;;;;7.25;6.43;;;;;;;1.75;81.88;98765.28;4185324;28;20223;-47
2023/04/06 01:31:27;;;;;;;11.80;8.27;;;;;;;1.74;82.78;98760.91;4171877;28;20208;-48
2023/04/06 01:33:28;;;;;;;14.43;7.07;;;;;;;1.83;82.86;98757.09;4170567;28;20304;-46
2023/04/06 01:35:30;;;;;;;7.60;6.88;;;;;;;1.82;82.60;98757.28;4172211;28;20623;-47
2023/04/06 01:37:32;;;;;;;11.32;6.57;;;;;;;1.77;82.76;98752.47;4187923;28;20219;-47
2023/04/06 01:39:34;;;;;;;7.85;7.05;;;;;;;1.70;83.35;98756.94;4186227;28;20747;-47
2023/04/06 01:41:36;;;;;;;11.75;6.00;;;;;;;1.70;82.66;98756.94;4184949;28;20249;-48
2023/04/06 01:43:38;;;;;;;10.30;5.68;;;;;;;1.69;83.28;98749.84;4157837;28;20773;-47
2023/04/06 01:45:39;;;;;;;8.38;6.90;;;;;;;1.70;83.69;98751.56;4173474;28;20667;-47
2023/04/06 01:47:44;;;;;;;6.35;5.75;;;;;;;1.67;83.46;98757.31;4170230;28;21222;-47
2023/04/06 01:49:46;;;;;;;8.80;7.72;;;;;;;1.56;83.73;98756.97;4165496;28;20207;-47
2023/04/06 01:51:48;;;;;;;9.32;6.78;;;;;;;1.55;84.59;98755.28;4168535;28;20242;-47
2023/04/06 01:53:49;;;;;;;8.60;6.90;;;;;;;1.59;84.82;98760.13;4175862;28;20250;-47
2023/04/06 01:55:51;;;;;;;7.32;6.05;;;;;;;1.62;84.50;98753.50;4168047;28;20233;-47
2023/04/06 01:57:53;;;;;;;6.28;5.78;;;;;;;1.47;84.28;98745.44;4169434;28;20212;-47
2023/04/06 01:59:55;;;;;;;6.57;4.75;;;;;;;1.60;84.56;98744.78;4167443;28;20216;-46
2023/04/06 02:01:56;;;;;;;4.63;4.03;;;;;;;1.62;84.21;98754.31;4168709;28;20223;-47
2023/04/06 02:04:01;;;;;;;4.30;4.00;;;;;;;1.65;84.33;98748.56;4169338;28;20243;-47
2023/04/06 02:06:03;;;;;;;4.53;3.67;;;;;;;1.50;84.24;98747.78;4190451;28;20273;-47
2023/04/06 02:08:05;;;;;;;4.07;3.53;;;;;;;1.49;84.30;98737.97;4196846;28;20207;-47
2023/04/06 02:10:12;;;;;;;3.67;3.38;;;;;;;1.38;84.10;98745.72;4174989;28;20666;-48
2023/04/06 02:12:14;;;;;;;4.65;4.35;;;;;;;1.29;84.52;98747.66;4173811;28;20731;-46
2023/04/06 02:14:16;;;;;;;4.30;3.88;;;;;;;1.33;84.99;98745.47;4153807;28;20220;-48
2023/04/06 02:16:18;;;;;;;3.53;3.22;;;;;;;1.27;85.11;98752.41;4192332;28;20258;-47
2023/04/06 02:18:19;;;;;;;4.32;4.03;;;;;;;1.32;84.75;98758.09;4161055;28;20243;-47
2023/04/06 02:20:21;;;;;;;3.85;3.55;;;;;;;1.22;84.66;98746.72;4158701;28;20673;-46
2023/04/06 02:22:23;;;;;;;3.92;3.63;;;;;;;1.21;84.90;98739.66;4168064;28;20273;-48
2023/04/06 02:24:25;;;;;;;4.15;3.75;;;;;;;1.21;85.03;98755.03;4168983;28;20224;-47
2023/04/06 02:26:27;;;;;;;4.28;3.70;;;;;;;1.21;85.52;98745.06;4153183;28;20229;-47
2023/04/06 02:28:28;;;;;;;7.80;4.22;;;;;;;1.20;85.43;98738.00;4174258;28;20428;-47
2023/04/06 02:30:32;;;;;;;4.45;4.05;;;;;;;1.24;85.88;98733.09;4169371;28;20295;-47
2023/04/06 02:32:34;;;;;;;4.53;4.20;;;;;;;1.22;86.39;98740.53;4174115;28;20258;-46
2023/04/06 02:34:36;;;;;;;6.35;3.97;;;;;;;1.29;85.76;98736.88;4201870;28;20230;-47
2023/04/06 02:36:38;;;;;;;3.60;3.35;;;;;;;1.17;86.18;98733.00;4169723;28;20225;-47
2023/04/06 02:38:39;;;;;;;5.60;3.88;;;;;;;1.19;86.56;98727.41;4153576;28;21171;-46
2023/04/06 02:40:41;;;;;;;4.25;3.50;;;;;;;1.08;86.12;98728.72;4171517;28;20219;-49
2023/04/06 02:42:43;;;;;;;4.00;3.70;;;;;;;1.05;85.50;98729.09;4191165;28;20207;-47
2023/04/06 02:44:45;;;;;;;4.78;4.43;;;;;;;1.06;85.41;98729.91;4167384;28;20255;-47
2023/04/06 02:46:46;;;;;;;3.58;3.28;;;;;;;1.04;85.93;98727.44;4171126;28;20267;-47
2023/04/06 02:48:48;;;;;;;3.88;2.83;;;;;;;1.02;86.25;98726.75;4185758;28;20261;-46
2023/04/06 02:50:50;;;;;;;4.30;3.72;;;;;;;0.96;85.89;98732.06;4172976;28;20207;-47
2023/04/06 02:52:52;;;;;;;4.40;3.95;;;;;;;1.05;86.02;98726.41;4166783;28;20216;-47
2023/04/06 02:54:54;;;;;;;4.47;3.45;;;;;;;1.06;85.85;98719.13;4167952;28;20200;-47
2023/04/06 02:56:56;;;;;;;4.07;3.75;;;;;;;0.98;86.08;98728.16;4167335;28;20242;-46
2023/04/06 02:58:58;;;;;;;3.15;2.95;;;;;;;1.06;86.10;98724.53;4167042;28;20303;-47
2023/04/06 03:00:59;;;;;;;3.97;3.67;;;;;;;0.97;85.95;98728.34;4169162;28;20216;-47
2023/04/06 03:03:01;;;;;;;4.57;3.65;;;;;;;0.90;85.88;98722.88;4177149;28;20219;-47
2023/04/06 03:05:03;;;;;;;4.72;3.95;;;;;;;0.86;85.53;98723.38;4170262;28;20243;-46
2023/04/06 03:07:05;;;;;;;3.30;3.00;;;;;;;0.96;86.03;98718.59;4166538;28;20228;-47
2023/04/06 03:09:07;;;;;;;3.67;3.10;;;;;;;0.94;86.00;98724.16;4171644;28;20203;-47
2023/04/06 03:11:10;;;;;;;3.70;3.40;;;;;;;0.88;86.24;98718.69;4168749;28;20290;-47
2023/04/06 03:13:12;;;;;;;4.00;2.80;;;;;;;0.87;86.04;98715.13;4183343;28;20218;-47
2023/04/06 03:15:14;;;;;;;4.03;3.13;;;;;;;0.85;85.96;98716.34;4170261;28;20244;-46
2023/04/06 03:17:16;;;;;;;3.42;2.95;;;;;;;0.78;85.77;98715.41;4175960;28;20269;-46
2023/04/06 03:19:17;;;;;;;3.58;3.28;;;;;;;0.85;86.46;98716.34;4140970;28;20291;-47
2023/04/06 03:21:19;;;;;;;3.85;3.55;;;;;;;0.80;86.57;98716.91;4199691;28;20238;-47
2023/04/06 03:23:21;;;;;;;3.13;2.83;;;;;;;0.80;86.57;98719.59;4159052;28;20721;-47
2023/04/06 03:25:23;;;;;;;4.00;3.67;;;;;;;0.85;86.27;98717.19;4166978;28;20212;-48
2023/04/06 03:27:25;;;;;;;3.80;3.50;;;;;;;0.78;86.42;98721.63;4163999;28;20227;-46
2023/04/06 03:29:27;;;;;;;3.47;3.17;;;;;;;0.75;86.54;98719.28;4197518;28;20740;-47
2023/04/06 03:31:28;;;;;;;3.47;3.28;;;;;;;0.72;86.41;98719.69;4174064;28;20212;-47
2023/04/06 03:33:30;;;;;;;3.25;2.95;;;;;;;0.80;86.78;98718.78;4170067;28;20208;-47
2023/04/06 03:35:32;;;;;;;3.50;3.20;;;;;;;0.77;86.36;98722.66;4199051;28;20249;-47
2023/04/06 03:37:34;;;;;;;4.40;3.85;;;;;;;0.84;86.79;98737.06;4199075;28;20202;-47
2023/04/06 03:39:36;;;;;;;4.72;4.32;;;;;;;0.66;87.26;98724.94;4172289;28;20213;-47
2023/04/06 03:41:37;;;;;;;6.25;4.45;;;;;;;0.54;87.04;98724.56;4167808;28;20204;-47
2023/04/06 03:43:39;;;;;;;4.93;4.35;;;;;;;0.48;87.23;98730.66;4154700;28;20232;-48
2023/04/06 03:45:41;;;;;;;4.22;3.83;;;;;;;0.48;88.04;98738.72;4170670;28;20204;-47
2023/04/06 03:47:43;;;;;;;4.95;4.38;;;;;;;0.53;88.05;98735.50;4170678;28;20208;-47
2023/04/06 03:49:45;;;;;;;7.33;4.70;;;;;;;0.53;87.94;98739.03;4152568;28;20204;-47
2023/04/06 03:51:47;;;;;;;5.03;4.63;;;;;;;0.65;88.62;98737.59;4197369;28;20207;-47
2023/04/06 03:53:49;;;;;;;5.32;4.82;;;;;;;0.56;88.44;98740.53;4176337;28;20616;-47
2023/04/06 03:55:51;;;;;;;5.20;4.70;;;;;;;0.50;88.65;98739.41;4202837;28;20311;-47
2023/04/06 03:57:53;;;;;;;4.43;4.13;;;;;;;0.56;88.64;98733.28;4174818;28;20282;-47
2023/04/06 03:59:54;;;;;;;5.13;4.20;;;;;;;0.47;88.70;98737.06;4172028;28;20271;-47
2023/04/06 04:02:00;;;;;;;4.70;4.33;;;;;;;0.43;88.75;98738.47;4177347;28;20212;-47
2023/04/06 04:04:01;;;;;;;4.60;4.17;;;;;;;0.37;88.63;98739.19;4171716;28;20339;-46
2023/04/06 04:06:03;;;;;;;5.90;4.27;;;;;;;0.46;89.11;98748.00;4158477;28;20744;-47
2023/04/06 04:08:05;;;;;;;4.68;4.38;;;;;;;0.43;89.78;98743.84;4173863;28;20262;-46
2023/04/06 04:10:08;;;;;;;7.87;5.50;;;;;;;0.41;89.15;98753.94;4188388;28;20788;-47
2023/04/06 04:12:10;;;;;;;6.57;5.40;;;;;;;0.36;89.92;98745.56;4178040;28;20255;-49
2023/04/06 04:14:11;;;;;;;5.75;5.22;;;;;;;0.33;89.73;98745.94;4170220;28;20200;-47
2023/04/06 04:16:13;;;;;;;6.63;4.55;;;;;;;0.31;89.62;98756.03;4173699;28;20289;-47
2023/04/06 04:18:15;;;;;;;4.93;4.57;;;;;;;0.38;89.50;98757.00;4173008;28;20655;-47
2023/04/06 04:20:17;;;;;;;5.30;4.80;;;;;;;0.34;89.05;98754.84;4153896;28;20311;-47
2023/04/06 04:22:19;;;;;;;6.47;5.20;;;;;;;0.28;89.61;98756.38;4200678;28;20623;-47
2023/04/06 04:24:21;;;;;;;4.00;3.70;;;;;;;0.26;89.21;98758.44;4175971;28;20216;-47
2023/04/06 04:26:22;;;;;;;4.77;4.37;;;;;;;0.33;89.52;98754.00;4170914;28;20232;-47
2023/04/06 04:28:24;;;;;;;5.10;4.57;;;;;;;0.23;89.50;98758.81;4159144;28;20224;-47
2023/04/06 04:30:29;;;;;;;4.50;4.00;;;;;;;0.18;89.15;98761.19;4176049;28;20217;-48
2023/04/06 04:32:30;;;;;;;4.10;3.80;;;;;;;0.22;89.28;98762.47;4171024;28;20211;-46
2023/04/06 04:34:32;;;;;;;5.07;4.67;;;;;;;0.22;89.68;98756.28;4174261;28;20236;-48
2023/04/06 04:36:34;;;;;;;4.53;4.13;;;;;;;0.14;89.59;98767.09;4173755;28;20666;-46
2023/04/06 04:38:36;;;;;;;5.63;4.67;;;;;;;0.13;89.51;98760.88;4199914;28;20365;-47
2023/04/06 04:40:37;;;;;;;4.93;4.53;;;;;;;0.16;89.52;98762.38;4169196;28;20219;-46
2023/04/06 04:42:39;;;;;;;6.27;5.00;;;;;;;0.32;89.77;98765.78;4186423;28;20721;-45
2023/04/06 04:44:41;;;;;;;6.93;4.87;;;;;;;0.39;89.68;98766.75;4156131;28;20251;-47
2023/04/06 04:46:43;;;;;;;6.60;6.03;;;;;;;0.41;89.19;98762.00;4170503;28;20240;-46
2023/04/06 04:48:44;;;;;;;12.57;8.63;;;;;;;0.40;89.05;98757.63;4171794;28;20242;-47
2023/04/06 04:50:46;;;;;;;9.40;8.50;;;;;;;0.32;89.12;98768.47;4172014;28;20212;-47
2023/04/06 04:52:48;;;;;;;8.80;8.00;;;;;;;0.27;89.01;98765.47;4154479;28;20213;-46
2023/04/06 04:54:50;;;;;;;8.97;8.07;;;;;;;0.17;89.53;98758.66;4171283;28;20232;-47
2023/04/06 04:56:52;;;;;;;8.80;8.07;;;;;;;0.12;89.72;98767.28;4200596;28;20210;-46
2023/04/06 04:58:54;;;;;;;8.00;7.40;;;;;;;0.11;89.97;98770.13;4174382;28;20581;-47
2023/04/06 05:00:55;;;;;;;7.67;6.93;;;;;;;0.08;89.82;98765.94;4165975;28;20251;-47
2023/04/06 05:02:57;;;;;;;12.63;6.30;;;;;;;0.12;90.29;98761.91;4168873;28;20208;-47
2023/04/06 05:04:59;;;;;;;6.57;5.97;;;;;;;0.18;90.42;98771.94;4157867;28;20217;-47
2023/04/06 05:07:06;;;;;;;7.60;7.03;;;;;;;0.23;90.31;98771.41;4172473;28;20267;-47
2023/04/06 05:09:08;;;;;;;7.80;7.07;;;;;;;0.10;90.17;98769.31;4169459;28;20215;-47
2023/04/06 05:11:10;;;;;;;6.13;5.60;;;;;;;0.02;90.55;98766.66;4170142;28;20303;-47
2023/04/06 05:13:12;;;;;;;5.37;4.87;;;;;;;0.00;90.54;98767.88;4174081;28;20766;-47
2023/04/06 05:15:14;;;;;;;6.47;5.40;;;;;;;-0.02;91.21;98764.50;4173554;28;20238;-46
2023/04/06 05:17:22;;;;;;;6.17;5.60;;;;;;;-0.06;91.00;98764.03;4155514;28;20732;-47
2023/04/06 05:19:55;;;;;;;5.90;5.30;;;;;;;-0.04;91.26;98759.28;4168443;28;20658;-47
2023/04/06 05:22:24;;;;;;;6.60;5.97;;;;;;;-0.01;91.65;98769.72;4180136;28;20207;-47
2023/04/06 05:24:42;;;;;;;5.33;4.37;;;;;;;0.10;91.37;98774.69;4169199;28;20219;-48
2023/04/06 05:26:47;;;;;;;5.73;5.00;;;;;;;0.12;91.67;98767.28;4170655;28;20263;-48
2023/04/06 05:28:49;;;;;;;8.83;6.47;;;;;;;0.14;91.91;98765.22;4166075;28;20311;-47
2023/04/06 05:30:51;;;;;;;8.02;5.00;;;;;;;0.10;91.95;98769.31;4180659;28;20208;-47
2023/04/06 05:32:52;;;;;;;5.93;5.27;;;;;;;0.13;92.24;98768.94;4196167;28;20214;-47
2023/04/06 05:34:55;;;;;;;5.50;4.63;;;;;;;0.18;92.23;98771.94;4170795;28;20208;-47
2023/04/06 05:36:57;;;;;;;7.67;4.83;;;;;;;0.13;91.96;98771.63;4168962;28;21199;-46
2023/04/06 05:38:59;;;;;;;5.43;4.97;;;;;;;0.09;91.96;98778.38;4166982;28;20848;-47
2023/04/06 05:41:01;;;;;;;4.97;3.87;;;;;;;0.20;92.60;98769.91;4185528;28;20270;-48
2023/04/06 05:43:03;;;;;;;7.67;4.83;;;;;;;0.24;93.50;98781.16;4175074;28;20208;-47
2023/04/06 05:45:10;;;;;;;5.60;4.60;;;;;;;0.26;93.48;98774.56;4148687;28;20255;-49
2023/04/06 05:47:12;;;;;;;6.30;5.60;;;;;;;0.46;93.81;98775.75;4165612;28;20969;-48
2023/04/06 05:49:14;;;;;;;6.20;5.40;;;;;;;0.61;94.30;98776.63;4166669;28;20639;-48
2023/04/06 05:51:16;;;;;;;8.75;4.85;;;;;;;0.82;95.79;98784.03;4168356;28;20212;-48
2023/04/06 05:53:17;;;;;;;6.78;6.15;;;;;;;0.99;95.26;98782.84;4167787;28;20208;-47
2023/04/06 05:55:19;;;;;;;5.30;4.97;;;;;;;1.02;94.97;98783.31;4171140;28;20200;-48
2023/04/06 05:57:24;;;;;;;7.60;6.90;;;;;;;1.23;95.24;98786.16;4199621;28;20685;-47
2023/04/06 05:59:34;;;;;;;6.63;5.88;;;;;;;1.37;94.57;98787.16;4182346;28;20207;-48
2023/04/06 06:01:50;;;;;;;6.90;6.20;;;;;;;1.52;93.95;98788.00;4172268;28;20207;-48
2023/04/06 06:04:05;;;;;;;7.10;5.43;;;;;;;1.84;95.18;98785.75;4168233;28;20208;-48
2023/04/06 06:06:15;;;;;;;7.00;6.35;;;;;;;1.97;93.99;98785.91;4154531;28;20235;-48
2023/04/06 06:08:24;;;;;;;8.13;5.82;;;;;;;2.15;93.21;98778.22;4181945;28;20215;-48
2023/04/06 06:10:39;;;;;;;7.68;4.72;;;;;;;2.33;91.71;98777.81;4156143;28;20640;-47
2023/04/06 06:12:58;;;;;;;7.20;6.50;;;;;;;2.49;92.12;98777.56;4155643;28;20206;-48
2023/04/06 06:15:10;;;;;;;6.57;5.90;;;;;;;2.89;90.28;98777.72;4187867;28;20294;-48
2023/04/06 06:17:24;;;;;;;6.47;5.97;;;;;;;3.28;87.97;98783.41;4186709;28;20219;-48
2023/04/06 06:19:31;;;;;;;9.20;6.93;;;;;;;3.61;86.34;98773.63;4136387;28;20296;-47
2023/04/06 06:21:38;;;;;;;10.20;6.18;;;;;;;3.73;85.81;98780.16;4150799;28;20304;-47
2023/04/06 06:23:42;;;;;;;8.68;6.60;;;;;;;4.08;84.25;98779.06;4166500;28;20715;-47
2023/04/06 06:25:43;;;;;;;8.70;6.20;;;;;;;4.09;83.49;98783.44;4166058;28;20235;-47
2023/04/06 06:27:45;;;;;;;6.90;6.30;;;;;;;3.69;80.15;98786.16;4163715;28;20562;-47
2023/04/06 06:29:47;;;;;;;10.93;7.47;;;;;;;3.79;82.07;98782.06;4154421;28;20591;-48
2023/04/06 06:31:49;;;;;;;7.93;6.50;;;;;;;3.76;82.89;98784.34;4171137;28;20275;-47
2023/04/06 06:33:53;;;;;;;7.18;6.50;;;;;;;3.68;82.09;98774.50;4161230;28;20262;-47
2023/04/06 06:35:56;;;;;;;8.38;6.82;;;;;;;3.72;81.54;98774.94;4175246;28;20217;-47
2023/04/06 06:37:58;;;;;;;8.48;6.90;;;;;;;3.94;82.61;98771.09;4160699;28;20229;-48
2023/04/06 06:40:00;;;;;;;19.15;7.50;;;;;;;4.23;83.77;98768.91;4173810;28;20251;-48
2023/04/06 06:42:02;;;;;;;11.32;6.78;;;;;;;5.40;79.96;98768.97;4160772;28;20220;-47
2023/04/06 06:44:05;;;;;;;6.75;5.55;;;;;;;5.92;74.78;98785.19;4198252;28;20583;-47
2023/04/06 06:46:07;;;;;;;7.15;5.90;;;;;;;6.05;74.65;98785.13;4176238;28;20293;-47
2023/04/06 06:48:09;;;;;;;12.23;6.30;;;;;;;5.49;75.63;98789.44;4186913;28;20618;-47
2023/04/06 06:50:11;;;;;;;11.90;6.25;;;;;;;5.83;75.06;98781.03;4156869;28;20208;-47
2023/04/06 06:52:14;;;;;;;6.53;5.93;;;;;;;6.59;71.16;98777.34;4171120;28;20316;-47
2023/04/06 06:54:16;;;;;;;7.20;6.45;;;;;;;6.47;71.12;98773.63;4183966;28;20295;-47
2023/04/06 06:56:18;;;;;;;7.00;6.40;;;;;;;7.09;68.73;98773.66;4172329;28;20312;-48
2023/04/06 06:58:20;;;;;;;8.77;8.07;;;;;;;5.59;69.84;98778.97;4202071;28;20748;-46
2023/04/06 07:00:22;;;;;;;8.88;7.97;;;;;;;5.39;72.57;98778.16;4163920;28;20211;-45
2023/04/06 07:02:25;;;;;;;7.72;7.13;;;;;;;5.55;73.67;98788.59;4165636;28;20438;-46
2023/04/06 07:04:27;;;;;;;8.23;6.60;;;;;;;6.04;74.93;98778.03;4183744;28;20227;-46
2023/04/06 07:06:29;;;;;;;7.50;6.57;;;;;;;7.04;71.18;98777.03;4167665;28;20660;-45
2023/04/06 07:08:31;;;;;;;8.30;7.50;;;;;;;7.73;66.48;98771.34;4177329;28;20223;-46
2023/04/06 07:10:35;;;;;;;7.97;7.40;;;;;;;7.73;65.52;98774.91;4166825;28;20934;-45
2023/04/06 07:12:37;;;;;;;7.63;6.70;;;;;;;7.27;66.87;98773.69;4158970;28;20266;-47
2023/04/06 07:14:42;;;;;;;9.52;8.00;;;;;;;6.70;71.93;98779.38;4168728;28;20209;-45
2023/04/06 07:16:45;;;;;;;7.25;6.60;;;;;;;7.61;68.42;98784.06;4169395;28;20221;-46
2023/04/06 07:18:47;;;;;;;8.38;7.22;;;;;;;8.34;65.55;98769.41;4170835;28;20208;-48
2023/04/06 07:20:49;;;;;;;5.88;5.38;;;;;;;8.50;63.92;98774.22;4188200;28;20639;-49
2023/04/06 07:22:52;;;;;;;7.43;6.05;;;;;;;8.39;62.72;98772.25;4173690;28;20204;-51
2023/04/06 07:24:56;;;;;;;6.90;6.03;;;;;;;8.82;61.53;98772.91;4149608;28;20236;-46
2023/04/06 07:27:01;;;;;;;9.93;5.95;;;;;;;8.38;62.97;98776.06;4174158;28;20235;-46
2023/04/06 07:29:03;;;;;;;6.75;6.15;;;;;;;8.18;61.37;98776.28;4183644;28;20229;-47
2023/04/06 07:31:06;;;;;;;9.50;6.60;;;;;;;7.90;65.25;98777.88;4191608;28;20239;-48
2023/04/06 07:33:08;;;;;;;8.13;6.85;;;;;;;8.61;63.64;98776.16;4165291;28;20208;-47
2023/04/06 07:35:14;;;;;;;10.43;7.28;;;;;;;9.14;61.23;98777.84;4158529;28;20204;-47
2023/04/06 07:37:16;;;;;;;10.05;6.32;;;;;;;9.22;58.95;98779.44;4170231;28;20240;-48
2023/04/06 07:39:18;;;;;;;8.88;6.35;;;;;;;9.40;58.88;98771.13;4172231;28;20239;-47
2023/04/06 07:41:21;;;;;;;7.28;6.57;;;;;;;9.71;57.64;98773.50;4171485;28;20207;-47
2023/04/06 07:43:25;;;;;;;7.03;6.40;;;;;;;10.69;55.71;98777.84;4171712;28;20212;-47
2023/04/06 07:45:27;;;;;;;7.13;6.50;;;;;;;10.91;55.48;98766.78;4168414;28;20223;-47
2023/04/06 07:47:32;;;;;;;11.77;7.28;;;;;;;11.41;53.94;98767.66;4200968;28;20231;-46
2023/04/06 07:49:34;;;;;;;11.00;7.13;;;;;;;11.25;53.90;98768.47;4167976;28;20228;-47
2023/04/06 07:51:38;;;;;;;9.13;6.80;;;;;;;11.11;53.67;98778.09;4168034;28;20219;-47
2023/04/06 07:53:41;;;;;;;8.52;6.57;;;;;;;10.61;54.33;98767.28;4165932;28;20258;-48
2023/04/06 07:55:42;;;;;;;8.07;6.15;;;;;;;10.83;54.97;98769.09;4167990;28;20283;-47
2023/04/06 07:57:44;;;;;;;8.82;7.10;;;;;;;10.61;54.05;98778.25;4170952;28;20203;-47
2023/04/06 07:59:50;;;;;;;17.75;6.97;;;;;;;11.11;54.40;98775.34;4184439;28;20234;-47
2023/04/06 08:01:52;;;;;;;9.10;8.30;;;;;;;10.22;54.40;98781.81;4183938;28;20246;-48
2023/04/06 08:03:55;;;;;;;7.82;7.13;;;;;;;11.17;53.88;98776.28;4170930;28;20216;-46
2023/04/06 08:05:57;;;;;;;8.30;7.30;;;;;;;11.69;52.46;98774.97;4169048;28;20225;-47
2023/04/06 08:08:02;;;;;;;8.57;7.78;;;;;;;10.79;52.95;98774.19;4169788;28;20478;-47
2023/04/06 08:10:05;;;;;;;9.00;7.78;;;;;;;12.27;51.60;98776.13;4168872;28;20929;-47
2023/04/06 08:12:09;;;;;;;7.80;7.03;;;;;;;12.30;51.24;98769.28;4153998;28;20291;-47
2023/04/06 08:14:11;;;;;;;8.57;7.50;;;;;;;12.65;51.03;98770.53;4200665;28;20653;-47
2023/04/06 08:16:13;;;;;;;12.40;8.00;;;;;;;12.47;50.28;98762.66;4174251;28;20304;-48
2023/04/06 08:18:15;;;;;;;10.40;7.55;;;;;;;11.72;51.15;98769.81;4168579;28;20302;-47
2023/04/06 08:20:18;;;;;;;9.07;7.45;;;;;;;11.95;51.70;98772.38;4168187;28;20210;-48
2023/04/06 08:22:20;;;;;;;14.98;7.10;;;;;;;11.88;52.02;98777.22;4191467;28;20211;-45
2023/04/06 08:24:23;;;;;;;7.47;6.88;;;;;;;12.69;50.75;98771.69;4167317;28;20589;-47
2023/04/06 08:26:40;;;;;;;7.90;6.55;;;;;;;11.52;50.25;98766.72;4171554;28;20251;-47
2023/04/06 08:28:42;;;;;;;12.27;6.68;;;;;;;12.02;51.38;98770.28;4168305;28;20223;-47
2023/04/06 08:30:47;;;;;;;10.00;7.93;;;;;;;11.70;49.77;98771.97;4172843;28;20207;-47
2023/04/06 08:32:50;;;;;;;7.63;6.85;;;;;;;11.64;52.21;98766.69;4189307;28;20609;-47
2023/04/06 08:34:56;;;;;;;7.38;6.50;;;;;;;11.26;53.61;98766.56;4171398;28;20204;-47
2023/04/06 08:37:02;;;;;;;6.47;5.90;;;;;;;12.31;51.30;98763.53;4191866;28;20228;-48
2023/04/06 08:39:08;;;;;;;7.90;6.75;;;;;;;12.82;49.56;98760.31;4185550;28;20741;-47
2023/04/06 08:41:13;;;;;;;6.70;6.10;;;;;;;12.82;50.15;98760.31;4169602;28;20240;-47
2023/04/06 08:43:19;;;;;;;7.40;6.03;;;;;;;13.02;50.04;98763.28;4199671;28;20277;-48
2023/04/06 08:45:22;;;;;;;15.07;6.65;;;;;;;13.45;48.85;98760.41;4176085;28;20281;-47
2023/04/06 08:47:27;;;;;;;6.90;5.75;;;;;;;13.96;48.35;98767.09;4171710;28;20224;-46
2023/04/06 08:49:30;;;;;;;7.18;5.88;;;;;;;13.44;48.67;98769.72;4171401;28;20204;-47
2023/04/06 08:51:45;;;;;;;7.07;6.38;;;;;;;13.58;47.88;98761.88;4201806;28;20211;-46
2023/04/06 08:53:48;;;;;;;6.53;5.90;;;;;;;13.32;46.39;98757.25;4176621;28;20622;-47
2023/04/06 08:55:51;;;;;;;5.97;5.40;;;;;;;13.30;45.67;98762.19;4172139;28;20200;-46
2023/04/06 08:57:59;;;;;;;8.63;5.47;;;;;;;13.49;46.37;98761.50;4204196;28;20253;-47
2023/04/06 09:00:03;;;;;;;12.20;5.75;;;;;;;13.15;45.63;98760.13;4172687;28;20223;-46
2023/04/06 09:02:06;;;;;;;5.68;5.18;;;;;;;13.38;45.25;98759.75;4204559;28;20210;-48
2023/04/06 09:04:18;;;;;;;10.65;5.50;;;;;;;13.58;44.73;98759.94;4168423;28;20574;-49
2023/04/06 09:06:22;;;;;;;5.70;5.13;;;;;;;13.57;44.92;98763.78;4159101;28;20239;-46
2023/04/06 09:08:34;;;;;;;6.43;5.22;;;;;;;13.64;43.35;98753.38;4171423;28;20671;-47
2023/04/06 09:10:54;;;;;;;6.10;5.50;;;;;;;13.47;44.98;98741.72;4172251;28;20219;-47
2023/04/06 09:13:04;;;;;;;5.63;5.03;;;;;;;13.62;43.47;98749.22;4174653;28;20209;-47
2023/04/06 09:15:18;;;;;;;5.97;5.38;;;;;;;13.02;43.28;98749.56;4169295;28;20209;-48
2023/04/06 09:17:32;;;;;;;5.68;5.18;;;;;;;13.09;43.91;98747.41;4169763;28;20238;-48
2023/04/06 09:19:45;;;;;;;6.68;5.70;;;;;;;13.25;43.78;98757.44;4204773;28;20290;-46
2023/04/06 09:22:00;;;;;;;6.05;5.55;;;;;;;12.30;42.53;98750.91;4170670;28;20741;-48
2023/04/06 09:24:03;;;;;;;6.40;5.70;;;;;;;12.59;43.82;98743.28;4168358;28;20200;-46
2023/04/06 09:26:13;;;;;;;6.22;5.65;;;;;;;12.54;43.49;98749.56;4175633;28;20240;-46
2023/04/06 09:28:15;;;;;;;6.88;6.28;;;;;;;12.95;44.73;98751.69;4166552;28;20227;-48
2023/04/06 09:30:18;;;;;;;7.50;6.82;;;;;;;13.13;43.00;98751.31;4187868;28;20732;-47
2023/04/06 09:32:20;;;;;;;7.22;6.63;;;;;;;13.80;45.00;98752.41;4200981;28;20203;-47
2023/04/06 09:34:25;;;;;;;6.18;5.63;;;;;;;13.74;43.25;98753.47;4201881;28;20611;-47
2023/04/06 09:36:34;;;;;;;6.32;5.68;;;;;;;13.99;43.11;98750.03;4176208;28;20251;-47
2023/04/06 09:38:50;;;;;;;7.00;6.40;;;;;;;13.96;42.82;98748.66;4201672;28;20246;-47
2023/04/06 09:40:52;;;;;;;7.57;5.35;;;;;;;13.66;42.14;98751.22;4170022;28;20232;-47
2023/04/06 09:43:04;;;;;;;6.82;5.50;;;;;;;12.94;41.39;98752.75;4183572;28;20418;-48
2023/04/06 09:45:06;;;;;;;7.03;6.43;;;;;;;12.93;42.81;98740.09;4170937;28;20303;-47
2023/04/06 09:47:08;;;;;;;6.50;5.95;;;;;;;13.33;42.32;98745.16;4167545;28;20733;-46